sensor_id;sensor_type;location;lat;lon;timestamp;temperature;humidity
1417;DHT22;703;51.162;13.574;2023-07-22T00:00:54;13.80;99.90
1417;DHT22;703;51.162;13.574;2023-07-22T00:03:19;13.90;99.90
1417;DHT22;703;51.162;13.574;2023-07-22T00:05:45;13.90;99.90
1417;DHT22;703;51.162;13.574;2023-07-22T00:08:11;14.00;99.90
1417;DHT22;703;51.162;13.574;2023-07-22T00:10:40;14.00;99.90
1417;DHT22;703;51.162;13.574;2023-07-22T00:13:05;14.00;99.90
1417;DHT22;703;51.162;13.574;2023-07-22T00:15:31;14.10;99.90
1417;DHT22;703;51.162;13.574;2023-07-22T00:17:56;14.00;99.90
1417;DHT22;703;51.162;13.574;2023-07-22T00:20:25;14.00;99.90
1417;DHT22;703;51.162;13.574;2023-07-22T00:22:52;14.10;99.90
1417;DHT22;703;51.162;13.574;2023-07-22T00:25:17;14.00;99.90
1417;DHT22;703;51.162;13.574;2023-07-22T00:27:43;14.00;99.90
1417;DHT22;703;51.162;13.574;2023-07-22T00:30:09;14.10;99.90
1417;DHT22;703;51.162;13.574;2023-07-22T00:32:35;14.10;99.90
1417;DHT22;703;51.162;13.574;2023-07-22T00:35:05;14.10;99.90
1417;DHT22;703;51.162;13.574;2023-07-22T00:37:31;14.20;99.90
1417;DHT22;703;51.162;13.574;2023-07-22T00:39:57;14.20;99.90
1417;DHT22;703;51.162;13.574;2023-07-22T00:42:23;14.20;99.90
1417;DHT22;703;51.162;13.574;2023-07-22T00:44:49;14.10;99.90
1417;DHT22;703;51.162;13.574;2023-07-22T00:47:15;14.20;99.90
1417;DHT22;703;51.162;13.574;2023-07-22T00:49:41;14.30;99.90
1417;DHT22;703;51.162;13.574;2023-07-22T00:52:06;14.20;99.90
1417;DHT22;703;51.162;13.574;2023-07-22T00:54:32;14.20;99.90
1417;DHT22;703;51.162;13.574;2023-07-22T00:56:57;14.10;99.90
1417;DHT22;703;51.162;13.574;2023-07-22T00:59:24;14.00;99.90
1417;DHT22;703;51.162;13.574;2023-07-22T01:01:49;14.10;99.90
1417;DHT22;703;51.162;13.574;2023-07-22T01:04:15;14.10;99.90
1417;DHT22;703;51.162;13.574;2023-07-22T01:06:42;14.10;99.90
1417;DHT22;703;51.162;13.574;2023-07-22T01:09:08;14.00;99.90
1417;DHT22;703;51.162;13.574;2023-07-22T01:11:34;14.00;99.90
1417;DHT22;703;51.162;13.574;2023-07-22T01:13:59;14.10;99.90
1417;DHT22;703;51.162;13.574;2023-07-22T01:16:27;14.10;99.90
1417;DHT22;703;51.162;13.574;2023-07-22T01:18:53;14.00;99.90
1417;DHT22;703;51.162;13.574;2023-07-22T01:21:19;14.10;99.90
1417;DHT22;703;51.162;13.574;2023-07-22T01:23:46;14.10;99.90
1417;DHT22;703;51.162;13.574;2023-07-22T01:26:12;14.10;99.90
1417;DHT22;703;51.162;13.574;2023-07-22T01:28:37;14.10;99.90
1417;DHT22;703;51.162;13.574;2023-07-22T01:31:03;14.20;99.90
1417;DHT22;703;51.162;13.574;2023-07-22T01:33:30;14.10;99.90
1417;DHT22;703;51.162;13.574;2023-07-22T01:35:56;14.10;99.90
1417;DHT22;703;51.162;13.574;2023-07-22T01:38:22;14.20;99.90
1417;DHT22;703;51.162;13.574;2023-07-22T01:40:48;14.20;99.90
1417;DHT22;703;51.162;13.574;2023-07-22T01:43:13;14.10;99.90
1417;DHT22;703;51.162;13.574;2023-07-22T01:45:39;14.10;99.90
1417;DHT22;703;51.162;13.574;2023-07-22T01:48:05;14.00;99.90
1417;DHT22;703;51.162;13.574;2023-07-22T01:50:31;13.90;99.90
1417;DHT22;703;51.162;13.574;2023-07-22T01:52:57;13.90;99.90
1417;DHT22;703;51.162;13.574;2023-07-22T01:55:22;13.90;99.90
1417;DHT22;703;51.162;13.574;2023-07-22T01:57:48;13.90;99.90
1417;DHT22;703;51.162;13.574;2023-07-22T02:00:14;13.90;99.90
1417;DHT22;703;51.162;13.574;2023-07-22T02:02:42;13.90;99.90
1417;DHT22;703;51.162;13.574;2023-07-22T02:05:08;14.00;99.90
1417;DHT22;703;51.162;13.574;2023-07-22T02:07:35;13.90;99.90
1417;DHT22;703;51.162;13.574;2023-07-22T02:10:00;13.80;99.90
1417;DHT22;703;51.162;13.574;2023-07-22T02:12:26;13.90;99.90
1417;DHT22;703;51.162;13.574;2023-07-22T02:14:54;13.70;99.90
1417;DHT22;703;51.162;13.574;2023-07-22T02:17:20;13.70;99.90
1417;DHT22;703;51.162;13.574;2023-07-22T02:19:46;13.70;99.90
1417;DHT22;703;51.162;13.574;2023-07-22T02:22:12;13.60;99.90
1417;DHT22;703;51.162;13.574;2023-07-22T02:24:38;13.50;99.90
1417;DHT22;703;51.162;13.574;2023-07-22T02:27:04;13.60;99.90
1417;DHT22;703;51.162;13.574;2023-07-22T02:29:29;13.60;99.90
1417;DHT22;703;51.162;13.574;2023-07-22T02:31:56;13.50;99.90
1417;DHT22;703;51.162;13.574;2023-07-22T02:34:23;13.50;99.90
1417;DHT22;703;51.162;13.574;2023-07-22T02:36:48;13.40;99.90
1417;DHT22;703;51.162;13.574;2023-07-22T02:39:14;13.40;99.90
1417;DHT22;703;51.162;13.574;2023-07-22T02:41:39;13.30;99.90
1417;DHT22;703;51.162;13.574;2023-07-22T02:44:05;13.40;99.90
1417;DHT22;703;51.162;13.574;2023-07-22T02:46:30;13.30;99.90
1417;DHT22;703;51.162;13.574;2023-07-22T02:48:57;13.20;99.90
1417;DHT22;703;51.162;13.574;2023-07-22T02:51:22;13.20;99.90
1417;DHT22;703;51.162;13.574;2023-07-22T02:53:48;13.20;99.90
1417;DHT22;703;51.162;13.574;2023-07-22T02:56:13;13.10;99.90
1417;DHT22;703;51.162;13.574;2023-07-22T02:58:39;13.10;99.90
1417;DHT22;703;51.162;13.574;2023-07-22T03:01:04;13.20;99.90
1417;DHT22;703;51.162;13.574;2023-07-22T03:03:30;13.30;99.90
1417;DHT22;703;51.162;13.574;2023-07-22T03:05:59;13.30;99.90
1417;DHT22;703;51.162;13.574;2023-07-22T03:08:24;13.30;99.90
1417;DHT22;703;51.162;13.574;2023-07-22T03:10:50;13.30;99.90
1417;DHT22;703;51.162;13.574;2023-07-22T03:13:16;13.30;99.90
1417;DHT22;703;51.162;13.574;2023-07-22T03:15:42;13.30;99.90
1417;DHT22;703;51.162;13.574;2023-07-22T03:18:07;13.30;99.90
1417;DHT22;703;51.162;13.574;2023-07-22T03:20:35;13.40;99.90
1417;DHT22;703;51.162;13.574;2023-07-22T03:23:01;13.40;99.90
1417;DHT22;703;51.162;13.574;2023-07-22T03:25:27;14.00;99.90
1417;DHT22;703;51.162;13.574;2023-07-22T03:27:52;13.40;99.90
1417;DHT22;703;51.162;13.574;2023-07-22T03:30:18;13.40;99.90
1417;DHT22;703;51.162;13.574;2023-07-22T03:32:44;13.40;99.90
1417;DHT22;703;51.162;13.574;2023-07-22T03:35:10;13.40;99.90
1417;DHT22;703;51.162;13.574;2023-07-22T03:37:36;13.40;99.90
1417;DHT22;703;51.162;13.574;2023-07-22T03:40:02;13.40;99.90
1417;DHT22;703;51.162;13.574;2023-07-22T03:42:28;13.40;99.90
1417;DHT22;703;51.162;13.574;2023-07-22T03:44:54;13.40;99.90
1417;DHT22;703;51.162;13.574;2023-07-22T03:47:19;13.50;99.90
1417;DHT22;703;51.162;13.574;2023-07-22T03:49:45;13.50;99.90
1417;DHT22;703;51.162;13.574;2023-07-22T03:52:10;13.50;99.90
1417;DHT22;703;51.162;13.574;2023-07-22T03:54:39;13.50;99.90
1417;DHT22;703;51.162;13.574;2023-07-22T03:57:05;13.50;99.90
1417;DHT22;703;51.162;13.574;2023-07-22T03:59:31;13.50;99.90
1417;DHT22;703;51.162;13.574;2023-07-22T04:01:57;13.50;99.90
1417;DHT22;703;51.162;13.574;2023-07-22T04:04:22;13.60;99.90
1417;DHT22;703;51.162;13.574;2023-07-22T04:06:48;13.50;99.90
1417;DHT22;703;51.162;13.574;2023-07-22T04:09:13;13.60;99.90
1417;DHT22;703;51.162;13.574;2023-07-22T04:11:39;13.60;99.90
1417;DHT22;703;51.162;13.574;2023-07-22T04:14:04;13.60;99.90
1417;DHT22;703;51.162;13.574;2023-07-22T04:16:30;13.60;99.90
1417;DHT22;703;51.162;13.574;2023-07-22T04:18:56;13.80;99.90
1417;DHT22;703;51.162;13.574;2023-07-22T04:21:21;13.70;99.90
1417;DHT22;703;51.162;13.574;2023-07-22T04:23:47;13.80;99.90
1417;DHT22;703;51.162;13.574;2023-07-22T04:26:14;13.80;99.90
1417;DHT22;703;51.162;13.574;2023-07-22T04:28:39;13.80;99.90
1417;DHT22;703;51.162;13.574;2023-07-22T04:31:05;13.90;99.90
1417;DHT22;703;51.162;13.574;2023-07-22T04:33:40;13.90;99.90
1417;DHT22;703;51.162;13.574;2023-07-22T04:36:06;14.00;99.90
1417;DHT22;703;51.162;13.574;2023-07-22T04:38:32;14.00;99.90
1417;DHT22;703;51.162;13.574;2023-07-22T04:40:57;14.00;99.90
1417;DHT22;703;51.162;13.574;2023-07-22T04:43:24;14.10;99.90
1417;DHT22;703;51.162;13.574;2023-07-22T04:45:50;14.10;99.90
1417;DHT22;703;51.162;13.574;2023-07-22T04:48:15;14.20;99.90
1417;DHT22;703;51.162;13.574;2023-07-22T04:50:41;14.20;99.90
1417;DHT22;703;51.162;13.574;2023-07-22T04:53:10;14.30;99.90
1417;DHT22;703;51.162;13.574;2023-07-22T04:55:35;14.30;99.90
1417;DHT22;703;51.162;13.574;2023-07-22T04:58:02;14.40;99.90
1417;DHT22;703;51.162;13.574;2023-07-22T05:00:27;14.50;99.90
1417;DHT22;703;51.162;13.574;2023-07-22T05:02:54;14.50;99.90
1417;DHT22;703;51.162;13.574;2023-07-22T05:05:21;14.60;99.90
1417;DHT22;703;51.162;13.574;2023-07-22T05:07:47;14.50;99.90
1417;DHT22;703;51.162;13.574;2023-07-22T05:10:14;14.50;99.90
1417;DHT22;703;51.162;13.574;2023-07-22T05:12:40;14.60;99.90
1417;DHT22;703;51.162;13.574;2023-07-22T05:15:06;14.60;99.90
1417;DHT22;703;51.162;13.574;2023-07-22T05:17:32;14.70;99.90
1417;DHT22;703;51.162;13.574;2023-07-22T05:19:57;14.70;99.90
1417;DHT22;703;51.162;13.574;2023-07-22T05:22:23;14.80;99.90
1417;DHT22;703;51.162;13.574;2023-07-22T05:24:49;14.90;99.90
1417;DHT22;703;51.162;13.574;2023-07-22T05:27:14;14.90;99.90
1417;DHT22;703;51.162;13.574;2023-07-22T05:29:40;15.00;99.90
1417;DHT22;703;51.162;13.574;2023-07-22T05:32:06;15.10;99.90
1417;DHT22;703;51.162;13.574;2023-07-22T05:34:32;15.20;99.90
1417;DHT22;703;51.162;13.574;2023-07-22T05:36:57;15.30;99.90
1417;DHT22;703;51.162;13.574;2023-07-22T05:39:22;15.40;99.90
1417;DHT22;703;51.162;13.574;2023-07-22T05:41:48;15.40;99.90
1417;DHT22;703;51.162;13.574;2023-07-22T05:44:14;15.50;99.90
1417;DHT22;703;51.162;13.574;2023-07-22T05:46:39;15.50;99.90
1417;DHT22;703;51.162;13.574;2023-07-22T05:49:05;15.60;99.90
1417;DHT22;703;51.162;13.574;2023-07-22T05:51:31;15.60;99.90
1417;DHT22;703;51.162;13.574;2023-07-22T05:53:56;15.60;99.90
1417;DHT22;703;51.162;13.574;2023-07-22T05:56:22;15.90;99.90
1417;DHT22;703;51.162;13.574;2023-07-22T05:58:48;15.80;99.90
1417;DHT22;703;51.162;13.574;2023-07-22T06:01:13;15.90;99.90
1417;DHT22;703;51.162;13.574;2023-07-22T06:03:40;16.00;99.90
1417;DHT22;703;51.162;13.574;2023-07-22T06:06:05;16.00;99.90
1417;DHT22;703;51.162;13.574;2023-07-22T06:08:31;16.10;99.90
1417;DHT22;703;51.162;13.574;2023-07-22T06:10:56;16.10;99.90
1417;DHT22;703;51.162;13.574;2023-07-22T06:13:22;15.90;99.90
1417;DHT22;703;51.162;13.574;2023-07-22T06:15:48;15.90;99.90
1417;DHT22;703;51.162;13.574;2023-07-22T06:18:13;15.90;99.90
1417;DHT22;703;51.162;13.574;2023-07-22T06:20:39;15.90;99.90
1417;DHT22;703;51.162;13.574;2023-07-22T06:23:04;15.90;99.90
1417;DHT22;703;51.162;13.574;2023-07-22T06:25:30;16.00;99.90
1417;DHT22;703;51.162;13.574;2023-07-22T06:27:56;16.00;99.90
1417;DHT22;703;51.162;13.574;2023-07-22T06:30:21;16.10;99.90
1417;DHT22;703;51.162;13.574;2023-07-22T06:32:47;16.10;99.90
1417;DHT22;703;51.162;13.574;2023-07-22T06:35:12;16.30;99.90
1417;DHT22;703;51.162;13.574;2023-07-22T06:37:38;16.50;99.90
1417;DHT22;703;51.162;13.574;2023-07-22T06:40:04;15.00;99.90
1417;DHT22;703;51.162;13.574;2023-07-22T06:42:30;16.40;99.90
1417;DHT22;703;51.162;13.574;2023-07-22T06:45:02;16.40;99.90
1417;DHT22;703;51.162;13.574;2023-07-22T06:47:27;16.20;99.90
1417;DHT22;703;51.162;13.574;2023-07-22T06:49:53;16.20;99.90
1417;DHT22;703;51.162;13.574;2023-07-22T06:52:18;16.40;99.90
1417;DHT22;703;51.162;13.574;2023-07-22T06:54:44;16.50;99.90
1417;DHT22;703;51.162;13.574;2023-07-22T06:57:10;16.50;99.90
1417;DHT22;703;51.162;13.574;2023-07-22T06:59:35;16.50;99.90
1417;DHT22;703;51.162;13.574;2023-07-22T07:02:01;16.80;99.90
1417;DHT22;703;51.162;13.574;2023-07-22T07:04:27;16.80;99.90
1417;DHT22;703;51.162;13.574;2023-07-22T07:06:52;16.80;99.90
1417;DHT22;703;51.162;13.574;2023-07-22T07:09:18;16.80;99.90
1417;DHT22;703;51.162;13.574;2023-07-22T07:11:44;17.00;99.90
1417;DHT22;703;51.162;13.574;2023-07-22T07:14:09;17.20;99.90
1417;DHT22;703;51.162;13.574;2023-07-22T07:16:35;17.30;99.90
1417;DHT22;703;51.162;13.574;2023-07-22T07:19:01;17.10;99.90
1417;DHT22;703;51.162;13.574;2023-07-22T07:21:27;17.00;99.90
1417;DHT22;703;51.162;13.574;2023-07-22T07:23:52;17.20;99.90
1417;DHT22;703;51.162;13.574;2023-07-22T07:26:18;17.30;99.90
1417;DHT22;703;51.162;13.574;2023-07-22T07:28:44;17.20;99.90
1417;DHT22;703;51.162;13.574;2023-07-22T07:31:11;17.30;99.90
1417;DHT22;703;51.162;13.574;2023-07-22T07:33:37;17.60;99.90
1417;DHT22;703;51.162;13.574;2023-07-22T07:36:02;17.80;99.90
1417;DHT22;703;51.162;13.574;2023-07-22T07:38:28;17.40;99.90
1417;DHT22;703;51.162;13.574;2023-07-22T07:40:55;17.50;99.90
1417;DHT22;703;51.162;13.574;2023-07-22T07:43:21;18.00;99.90
1417;DHT22;703;51.162;13.574;2023-07-22T07:45:46;17.80;99.90
1417;DHT22;703;51.162;13.574;2023-07-22T07:48:12;17.70;99.90
1417;DHT22;703;51.162;13.574;2023-07-22T07:50:38;17.70;99.90
1417;DHT22;703;51.162;13.574;2023-07-22T07:53:03;17.60;99.90
1417;DHT22;703;51.162;13.574;2023-07-22T07:55:29;17.50;99.90
1417;DHT22;703;51.162;13.574;2023-07-22T07:57:54;17.60;99.90
1417;DHT22;703;51.162;13.574;2023-07-22T08:00:20;17.40;99.90
1417;DHT22;703;51.162;13.574;2023-07-22T08:02:46;17.50;99.90
1417;DHT22;703;51.162;13.574;2023-07-22T08:05:12;18.00;99.90
1417;DHT22;703;51.162;13.574;2023-07-22T08:07:37;18.40;99.90
1417;DHT22;703;51.162;13.574;2023-07-22T08:10:03;18.70;99.90
1417;DHT22;703;51.162;13.574;2023-07-22T08:12:30;18.70;99.90
1417;DHT22;703;51.162;13.574;2023-07-22T08:14:55;18.70;99.90
1417;DHT22;703;51.162;13.574;2023-07-22T08:17:21;18.70;99.90
1417;DHT22;703;51.162;13.574;2023-07-22T08:19:47;18.80;99.90
1417;DHT22;703;51.162;13.574;2023-07-22T08:22:12;18.40;99.90
1417;DHT22;703;51.162;13.574;2023-07-22T08:24:38;18.40;99.90
1417;DHT22;703;51.162;13.574;2023-07-22T08:27:03;18.30;99.90
1417;DHT22;703;51.162;13.574;2023-07-22T08:29:29;18.50;99.90
1417;DHT22;703;51.162;13.574;2023-07-22T08:31:54;18.90;99.90
1417;DHT22;703;51.162;13.574;2023-07-22T08:34:20;19.10;99.90
1417;DHT22;703;51.162;13.574;2023-07-22T08:36:45;19.00;99.90
1417;DHT22;703;51.162;13.574;2023-07-22T08:39:11;19.30;99.90
1417;DHT22;703;51.162;13.574;2023-07-22T08:41:36;19.30;99.90
1417;DHT22;703;51.162;13.574;2023-07-22T08:44:02;19.30;99.90
1417;DHT22;703;51.162;13.574;2023-07-22T08:46:29;19.10;99.90
1417;DHT22;703;51.162;13.574;2023-07-22T08:48:55;19.10;99.90
1417;DHT22;703;51.162;13.574;2023-07-22T08:51:22;19.40;99.90
1417;DHT22;703;51.162;13.574;2023-07-22T08:53:48;19.30;99.90
1417;DHT22;703;51.162;13.574;2023-07-22T08:56:14;18.90;99.90
1417;DHT22;703;51.162;13.574;2023-07-22T08:58:41;19.20;99.90
1417;DHT22;703;51.162;13.574;2023-07-22T09:01:07;19.60;99.90
1417;DHT22;703;51.162;13.574;2023-07-22T09:03:33;19.70;99.90
1417;DHT22;703;51.162;13.574;2023-07-22T09:05:58;20.30;99.90
1417;DHT22;703;51.162;13.574;2023-07-22T09:08:24;20.50;99.90
1417;DHT22;703;51.162;13.574;2023-07-22T09:10:50;20.80;99.90
1417;DHT22;703;51.162;13.574;2023-07-22T09:13:16;21.00;99.90
1417;DHT22;703;51.162;13.574;2023-07-22T09:15:42;21.20;99.90
1417;DHT22;703;51.162;13.574;2023-07-22T09:18:08;21.10;99.90
1417;DHT22;703;51.162;13.574;2023-07-22T09:20:33;21.00;99.90
1417;DHT22;703;51.162;13.574;2023-07-22T09:23:00;21.30;99.90
1417;DHT22;703;51.162;13.574;2023-07-22T09:25:26;21.60;99.90
1417;DHT22;703;51.162;13.574;2023-07-22T09:27:54;21.50;99.90
1417;DHT22;703;51.162;13.574;2023-07-22T09:30:26;21.60;99.90
1417;DHT22;703;51.162;13.574;2023-07-22T09:32:53;21.50;99.90
1417;DHT22;703;51.162;13.574;2023-07-22T09:35:20;21.60;99.90
1417;DHT22;703;51.162;13.574;2023-07-22T09:37:45;21.90;99.90
1417;DHT22;703;51.162;13.574;2023-07-22T09:42:43;22.30;99.90
1417;DHT22;703;51.162;13.574;2023-07-22T09:45:08;21.70;99.90
1417;DHT22;703;51.162;13.574;2023-07-22T09:47:44;21.90;99.90
1417;DHT22;703;51.162;13.574;2023-07-22T09:50:10;21.70;99.90
1417;DHT22;703;51.162;13.574;2023-07-22T09:52:46;21.40;99.90
1417;DHT22;703;51.162;13.574;2023-07-22T09:55:14;22.20;99.90
1417;DHT22;703;51.162;13.574;2023-07-22T09:57:43;22.70;99.90
1417;DHT22;703;51.162;13.574;2023-07-22T10:00:11;22.50;99.90
1417;DHT22;703;51.162;13.574;2023-07-22T10:02:37;22.50;99.90
1417;DHT22;703;51.162;13.574;2023-07-22T10:05:04;22.60;99.90
1417;DHT22;703;51.162;13.574;2023-07-22T10:07:31;22.50;99.90
1417;DHT22;703;51.162;13.574;2023-07-22T10:09:57;22.60;99.90
1417;DHT22;703;51.162;13.574;2023-07-22T10:12:23;22.90;99.90
1417;DHT22;703;51.162;13.574;2023-07-22T10:14:49;22.70;99.90
1417;DHT22;703;51.162;13.574;2023-07-22T10:17:16;22.80;99.90
1417;DHT22;703;51.162;13.574;2023-07-22T10:19:42;22.80;99.90
1417;DHT22;703;51.162;13.574;2023-07-22T10:22:08;23.10;99.90
1417;DHT22;703;51.162;13.574;2023-07-22T10:24:35;23.40;99.90
1417;DHT22;703;51.162;13.574;2023-07-22T10:27:01;23.80;99.90
1417;DHT22;703;51.162;13.574;2023-07-22T10:29:27;22.50;99.90
1417;DHT22;703;51.162;13.574;2023-07-22T10:31:53;22.00;99.90
1417;DHT22;703;51.162;13.574;2023-07-22T10:34:23;21.90;99.90
1417;DHT22;703;51.162;13.574;2023-07-22T10:36:48;21.80;99.90
1417;DHT22;703;51.162;13.574;2023-07-22T10:39:27;21.70;99.90
1417;DHT22;703;51.162;13.574;2023-07-22T10:42:05;21.50;99.90
1417;DHT22;703;51.162;13.574;2023-07-22T10:44:33;21.70;99.90
1417;DHT22;703;51.162;13.574;2023-07-22T10:47:00;22.10;99.90
1417;DHT22;703;51.162;13.574;2023-07-22T10:49:28;22.70;99.90
1417;DHT22;703;51.162;13.574;2023-07-22T10:52:07;22.90;99.90
1417;DHT22;703;51.162;13.574;2023-07-22T10:54:33;24.60;99.90
1417;DHT22;703;51.162;13.574;2023-07-22T10:57:03;23.20;99.90
1417;DHT22;703;51.162;13.574;2023-07-22T10:59:31;23.30;99.90
1417;DHT22;703;51.162;13.574;2023-07-22T11:01:57;23.10;99.90
1417;DHT22;703;51.162;13.574;2023-07-22T11:04:23;23.30;99.90
1417;DHT22;703;51.162;13.574;2023-07-22T11:06:57;23.70;99.90
1417;DHT22;703;51.162;13.574;2023-07-22T11:14:22;24.10;99.90
1417;DHT22;703;51.162;13.574;2023-07-22T11:16:48;24.10;99.90
1417;DHT22;703;51.162;13.574;2023-07-22T11:19:14;24.50;99.90
1417;DHT22;703;51.162;13.574;2023-07-22T11:21:41;24.20;99.90
1417;DHT22;703;51.162;13.574;2023-07-22T11:24:06;23.70;99.90
1417;DHT22;703;51.162;13.574;2023-07-22T11:26:32;23.20;99.90
1417;DHT22;703;51.162;13.574;2023-07-22T11:28:59;23.40;99.90
1417;DHT22;703;51.162;13.574;2023-07-22T11:31:34;23.90;99.90
1417;DHT22;703;51.162;13.574;2023-07-22T11:34:05;23.80;99.90
1417;DHT22;703;51.162;13.574;2023-07-22T11:36:30;23.90;99.90
1417;DHT22;703;51.162;13.574;2023-07-22T11:41:34;23.60;99.90
1417;DHT22;703;51.162;13.574;2023-07-22T11:44:00;23.40;99.90
1417;DHT22;703;51.162;13.574;2023-07-22T11:46:27;23.50;99.90
1417;DHT22;703;51.162;13.574;2023-07-22T11:48:53;22.90;99.90
1417;DHT22;703;51.162;13.574;2023-07-22T11:51:19;22.80;99.90
1417;DHT22;703;51.162;13.574;2023-07-22T11:53:52;23.10;99.90
1417;DHT22;703;51.162;13.574;2023-07-22T11:56:21;23.50;99.90
1417;DHT22;703;51.162;13.574;2023-07-22T11:58:56;23.70;99.90
1417;DHT22;703;51.162;13.574;2023-07-22T12:01:22;23.70;99.90
1417;DHT22;703;51.162;13.574;2023-07-22T12:03:48;23.30;99.90
1417;DHT22;703;51.162;13.574;2023-07-22T12:06:15;23.10;99.90
1417;DHT22;703;51.162;13.574;2023-07-22T12:08:47;23.60;99.90
1417;DHT22;703;51.162;13.574;2023-07-22T12:11:20;24.30;99.90
1417;DHT22;703;51.162;13.574;2023-07-22T12:13:45;23.90;99.90
1417;DHT22;703;51.162;13.574;2023-07-22T12:16:20;23.80;99.90
1417;DHT22;703;51.162;13.574;2023-07-22T12:18:46;23.80;99.90
1417;DHT22;703;51.162;13.574;2023-07-22T12:21:13;23.90;99.90
1417;DHT22;703;51.162;13.574;2023-07-22T12:23:38;23.40;99.90
1417;DHT22;703;51.162;13.574;2023-07-22T12:26:04;23.00;99.90
1417;DHT22;703;51.162;13.574;2023-07-22T12:28:30;23.10;99.90
1417;DHT22;703;51.162;13.574;2023-07-22T12:30:55;23.10;99.90
1417;DHT22;703;51.162;13.574;2023-07-22T12:33:23;22.90;99.90
1417;DHT22;703;51.162;13.574;2023-07-22T12:35:49;23.00;99.90
1417;DHT22;703;51.162;13.574;2023-07-22T12:38:15;23.10;99.90
1417;DHT22;703;51.162;13.574;2023-07-22T12:40:40;22.90;99.90
1417;DHT22;703;51.162;13.574;2023-07-22T12:43:06;22.90;99.90
1417;DHT22;703;51.162;13.574;2023-07-22T12:45:31;22.80;99.90
1417;DHT22;703;51.162;13.574;2023-07-22T12:47:57;23.00;99.90
1417;DHT22;703;51.162;13.574;2023-07-22T12:50:22;23.00;99.90
1417;DHT22;703;51.162;13.574;2023-07-22T12:52:48;23.00;99.90
1417;DHT22;703;51.162;13.574;2023-07-22T12:55:13;23.50;99.90
1417;DHT22;703;51.162;13.574;2023-07-22T12:57:39;23.90;99.90
1417;DHT22;703;51.162;13.574;2023-07-22T13:00:05;24.00;99.90
1417;DHT22;703;51.162;13.574;2023-07-22T13:02:36;23.60;99.90
1417;DHT22;703;51.162;13.574;2023-07-22T13:05:01;23.40;99.90
1417;DHT22;703;51.162;13.574;2023-07-22T13:07:27;23.30;99.90
1417;DHT22;703;51.162;13.574;2023-07-22T13:09:52;23.00;99.90
1417;DHT22;703;51.162;13.574;2023-07-22T13:12:21;23.20;99.90
1417;DHT22;703;51.162;13.574;2023-07-22T13:14:47;23.00;99.90
1417;DHT22;703;51.162;13.574;2023-07-22T13:17:13;23.20;99.90
1417;DHT22;703;51.162;13.574;2023-07-22T13:19:38;23.10;99.90
1417;DHT22;703;51.162;13.574;2023-07-22T13:22:04;23.00;99.90
1417;DHT22;703;51.162;13.574;2023-07-22T13:24:29;22.90;99.90
1417;DHT22;703;51.162;13.574;2023-07-22T13:26:55;22.80;99.90
1417;DHT22;703;51.162;13.574;2023-07-22T13:29:20;22.90;99.90
1417;DHT22;703;51.162;13.574;2023-07-22T13:31:46;23.10;99.90
1417;DHT22;703;51.162;13.574;2023-07-22T13:34:11;22.90;99.90
1417;DHT22;703;51.162;13.574;2023-07-22T13:36:37;23.10;99.90
1417;DHT22;703;51.162;13.574;2023-07-22T13:39:02;23.90;99.90
1417;DHT22;703;51.162;13.574;2023-07-22T13:41:28;24.60;99.90
1417;DHT22;703;51.162;13.574;2023-07-22T13:43:53;24.90;99.90
1417;DHT22;703;51.162;13.574;2023-07-22T13:46:19;25.10;99.90
1417;DHT22;703;51.162;13.574;2023-07-22T13:48:45;24.40;99.90
1417;DHT22;703;51.162;13.574;2023-07-22T13:51:10;24.00;99.90
1417;DHT22;703;51.162;13.574;2023-07-22T13:53:36;24.00;99.90
1417;DHT22;703;51.162;13.574;2023-07-22T13:56:01;24.10;99.90
1417;DHT22;703;51.162;13.574;2023-07-22T13:58:27;23.60;99.90
1417;DHT22;703;51.162;13.574;2023-07-22T14:00:53;23.70;99.90
1417;DHT22;703;51.162;13.574;2023-07-22T14:03:18;23.90;99.90
1417;DHT22;703;51.162;13.574;2023-07-22T14:05:47;23.50;99.90
1417;DHT22;703;51.162;13.574;2023-07-22T14:08:13;23.70;99.90
1417;DHT22;703;51.162;13.574;2023-07-22T14:10:38;23.80;99.90
1417;DHT22;703;51.162;13.574;2023-07-22T14:13:04;24.70;99.90
1417;DHT22;703;51.162;13.574;2023-07-22T14:15:29;25.00;99.90
1417;DHT22;703;51.162;13.574;2023-07-22T14:17:54;24.90;99.90
1417;DHT22;703;51.162;13.574;2023-07-22T14:20:20;25.20;99.90
1417;DHT22;703;51.162;13.574;2023-07-22T14:22:46;25.60;99.90
1417;DHT22;703;51.162;13.574;2023-07-22T14:25:12;25.50;99.90
1417;DHT22;703;51.162;13.574;2023-07-22T14:27:38;25.50;99.90
1417;DHT22;703;51.162;13.574;2023-07-22T14:30:04;25.50;99.90
1417;DHT22;703;51.162;13.574;2023-07-22T14:32:31;25.70;99.90
1417;DHT22;703;51.162;13.574;2023-07-22T14:34:56;25.80;99.90
1417;DHT22;703;51.162;13.574;2023-07-22T14:37:22;26.10;99.90
1417;DHT22;703;51.162;13.574;2023-07-22T14:39:48;25.90;99.90
1417;DHT22;703;51.162;13.574;2023-07-22T14:42:14;26.00;99.90
1417;DHT22;703;51.162;13.574;2023-07-22T14:44:39;25.70;99.90
1417;DHT22;703;51.162;13.574;2023-07-22T14:47:05;24.90;99.90
1417;DHT22;703;51.162;13.574;2023-07-22T14:49:30;24.90;99.90
1417;DHT22;703;51.162;13.574;2023-07-22T14:51:56;25.50;99.90
1417;DHT22;703;51.162;13.574;2023-07-22T14:54:22;25.70;99.90
1417;DHT22;703;51.162;13.574;2023-07-22T14:56:48;25.70;99.90
1417;DHT22;703;51.162;13.574;2023-07-22T14:59:14;25.30;99.90
1417;DHT22;703;51.162;13.574;2023-07-22T15:01:40;25.20;99.90
1417;DHT22;703;51.162;13.574;2023-07-22T15:04:06;25.30;99.90
1417;DHT22;703;51.162;13.574;2023-07-22T15:06:31;25.70;99.90
1417;DHT22;703;51.162;13.574;2023-07-22T15:08:58;25.40;99.90
1417;DHT22;703;51.162;13.574;2023-07-22T15:11:23;25.40;99.90
1417;DHT22;703;51.162;13.574;2023-07-22T15:13:49;25.40;99.90
1417;DHT22;703;51.162;13.574;2023-07-22T15:16:14;25.50;99.90
1417;DHT22;703;51.162;13.574;2023-07-22T15:18:40;24.90;99.90
1417;DHT22;703;51.162;13.574;2023-07-22T15:21:06;24.50;99.90
1417;DHT22;703;51.162;13.574;2023-07-22T15:23:32;24.70;99.90
1417;DHT22;703;51.162;13.574;2023-07-22T15:26:01;25.10;99.90
1417;DHT22;703;51.162;13.574;2023-07-22T15:28:26;25.40;99.90
1417;DHT22;703;51.162;13.574;2023-07-22T15:30:55;23.50;99.90
1417;DHT22;703;51.162;13.574;2023-07-22T15:33:20;24.70;99.90
1417;DHT22;703;51.162;13.574;2023-07-22T15:35:47;24.80;99.90
1417;DHT22;703;51.162;13.574;2023-07-22T15:38:12;25.20;99.90
1417;DHT22;703;51.162;13.574;2023-07-22T15:40:38;25.50;99.90
1417;DHT22;703;51.162;13.574;2023-07-22T15:43:03;25.50;99.90
1417;DHT22;703;51.162;13.574;2023-07-22T15:45:29;25.60;99.90
1417;DHT22;703;51.162;13.574;2023-07-22T15:47:55;25.50;99.90
1417;DHT22;703;51.162;13.574;2023-07-22T15:50:20;25.50;99.90
1417;DHT22;703;51.162;13.574;2023-07-22T15:52:46;25.70;99.90
1417;DHT22;703;51.162;13.574;2023-07-22T15:55:11;25.70;99.90
1417;DHT22;703;51.162;13.574;2023-07-22T15:57:37;25.40;99.90
1417;DHT22;703;51.162;13.574;2023-07-22T16:00:03;25.50;99.90
1417;DHT22;703;51.162;13.574;2023-07-22T16:02:28;25.60;99.90
1417;DHT22;703;51.162;13.574;2023-07-22T16:04:54;25.70;99.90